Time;durP1;ratioP1;P1;durP2;ratioP2;P2;SDS_P1;SDS_P2;PMS_P1;PMS_P2;Temp;Humidity;BMP_temperature;BMP_pressure;BME280_temperature;BME280_humidity;BME280_pressure;Samples;Min_cycle;Max_cycle;Signal;HPM_P1;HPM_P2
2022/07/12 00:00:26;;;;;;;2.97;2.60;;;;;;;9.23;100.00;98968.66;2533559;29;20056;-79
2022/07/12 00:01:53;;;;;;;2.83;2.63;;;;;;;9.14;100.00;98967.91;2532450;29;20063;-77
2022/07/12 00:03:08;;;;;;;2.90;2.70;;;;;;;9.17;100.00;98961.78;2521714;29;20053;-77
2022/07/12 00:04:24;;;;;;;3.75;2.88;;;;;;;9.12;100.00;98964.44;2526163;29;20068;-76
2022/07/12 00:05:39;;;;;;;3.40;3.10;;;;;;;9.16;100.00;98967.88;2530902;29;20052;-76
2022/07/12 00:06:55;;;;;;;4.65;3.00;;;;;;;9.26;100.00;98971.22;2530861;29;20051;-77
2022/07/12 00:08:11;;;;;;;3.45;3.15;;;;;;;9.23;100.00;98966.06;2532100;29;21005;-77
2022/07/12 00:09:26;;;;;;;5.93;3.10;;;;;;;9.24;100.00;98958.16;2531993;29;20057;-76
2022/07/12 00:10:42;;;;;;;3.40;3.10;;;;;;;9.31;100.00;98958.94;2533873;29;20758;-76
2022/07/12 00:11:58;;;;;;;3.33;2.88;;;;;;;9.30;100.00;98965.94;2521471;29;20105;-77
2022/07/12 00:13:13;;;;;;;3.38;3.08;;;;;;;9.28;100.00;98972.06;2525709;29;20052;-76
2022/07/12 00:14:29;;;;;;;3.33;3.03;;;;;;;9.26;100.00;98960.78;2534290;29;20510;-77
2022/07/12 00:15:44;;;;;;;3.80;3.00;;;;;;;9.23;100.00;98960.81;2534645;29;20115;-76
2022/07/12 00:17:00;;;;;;;3.70;2.85;;;;;;;9.22;100.00;98959.94;2524747;29;20705;-77
2022/07/12 00:18:15;;;;;;;4.47;2.85;;;;;;;9.19;100.00;98960.84;2516794;29;20848;-76
2022/07/12 00:19:32;;;;;;;3.42;2.80;;;;;;;9.17;100.00;98956.53;2527431;29;20052;-76
2022/07/12 00:20:47;;;;;;;3.28;2.97;;;;;;;9.17;100.00;98954.78;2534478;29;20063;-79
2022/07/12 00:22:03;;;;;;;3.30;3.00;;;;;;;9.15;100.00;98953.94;2534926;29;20076;-77
2022/07/12 00:23:19;;;;;;;2.90;2.70;;;;;;;9.15;100.00;98961.78;2534685;29;20052;-76
2022/07/12 00:24:34;;;;;;;6.20;3.00;;;;;;;9.14;100.00;98960.06;2533465;29;20045;-77
2022/07/12 00:25:50;;;;;;;3.03;2.83;;;;;;;9.14;100.00;98954.84;2534117;29;20049;-77
2022/07/12 00:27:05;;;;;;;3.50;3.20;;;;;;;9.11;100.00;98954.88;2535155;29;20051;-76
2022/07/12 00:28:21;;;;;;;3.17;2.70;;;;;;;9.10;100.00;98953.16;2533708;29;20061;-76
2022/07/12 00:29:36;;;;;;;3.65;2.95;;;;;;;9.08;100.00;98956.66;2535681;29;20100;-76
2022/07/12 00:30:52;;;;;;;3.20;2.90;;;;;;;9.07;100.00;98953.19;2534148;29;20048;-76
2022/07/12 00:32:08;;;;;;;3.35;3.05;;;;;;;9.04;100.00;98950.59;2534488;29;20108;-76
2022/07/12 00:33:24;;;;;;;3.40;3.10;;;;;;;9.05;100.00;98952.34;2535768;29;20056;-77
2022/07/12 00:34:40;;;;;;;4.30;2.90;;;;;;;9.02;100.00;98953.25;2534141;29;20062;-76
2022/07/12 00:35:56;;;;;;;5.25;3.05;;;;;;;9.03;100.00;98946.28;2533296;29;20565;-77
2022/07/12 00:37:11;;;;;;;3.30;2.95;;;;;;;9.02;100.00;98952.38;2534412;29;20644;-77
2022/07/12 00:38:27;;;;;;;3.40;3.10;;;;;;;9.02;100.00;98953.25;2532828;29;20060;-76
2022/07/12 00:39:42;;;;;;;3.03;2.83;;;;;;;8.97;100.00;98954.22;2534356;29;20396;-77
2022/07/12 00:40:58;;;;;;;5.82;2.90;;;;;;;8.89;100.00;98951.69;2533962;29;20629;-77
2022/07/12 00:42:13;;;;;;;3.00;2.70;;;;;;;8.85;100.00;98958.69;2533049;29;20120;-76
2022/07/12 00:43:29;;;;;;;3.05;2.85;;;;;;;8.76;100.00;98958.81;2535287;29;20059;-76
2022/07/12 00:44:45;;;;;;;3.97;2.75;;;;;;;8.75;100.00;98952.72;2534825;29;20052;-76
2022/07/12 00:46:00;;;;;;;2.75;2.38;;;;;;;8.73;100.00;98951.00;2532698;29;20061;-76
2022/07/12 00:47:36;;;;;;;3.30;3.00;;;;;;;8.73;100.00;98953.63;2535447;29;20059;-76
2022/07/12 00:48:53;;;;;;;3.45;3.15;;;;;;;8.69;100.00;98954.56;2532461;29;20067;-77
2022/07/12 00:50:20;;;;;;;4.43;2.80;;;;;;;8.64;100.00;98958.94;2533350;29;20056;-75
2022/07/12 00:51:36;;;;;;;3.22;2.92;;;;;;;8.65;100.00;98960.66;2533856;29;20052;-77
2022/07/12 00:52:54;;;;;;;3.72;2.67;;;;;;;8.60;100.00;98961.59;2533255;29;20048;-77
2022/07/12 00:54:10;;;;;;;3.60;3.20;;;;;;;8.55;100.00;98959.91;2535416;29;20109;-77
2022/07/12 00:55:26;;;;;;;3.55;3.05;;;;;;;8.53;100.00;98962.56;2535020;29;20100;-78
2022/07/12 00:56:42;;;;;;;4.82;3.10;;;;;;;8.53;100.00;98965.19;2533962;29;20523;-77
2022/07/12 00:57:58;;;;;;;3.88;3.17;;;;;;;8.53;100.00;98962.56;2524818;29;20128;-77
2022/07/12 00:59:14;;;;;;;4.47;3.10;;;;;;;8.50;100.00;98957.34;2527430;29;20097;-77
2022/07/12 01:00:30;;;;;;;3.15;2.85;;;;;;;8.49;100.00;98963.44;2532994;29;20527;-79
2022/07/12 01:01:45;;;;;;;3.20;2.90;;;;;;;8.47;100.00;98967.81;2535295;29;20051;-78
2022/07/12 01:03:02;;;;;;;3.63;3.22;;;;;;;8.41;100.00;98963.50;2534651;29;20075;-78
2022/07/12 01:04:18;;;;;;;3.50;3.20;;;;;;;8.40;100.00;98967.00;2534234;29;20423;-77
2022/07/12 01:05:34;;;;;;;7.07;2.92;;;;;;;8.38;100.00;98968.78;2535230;29;20048;-77
2022/07/12 01:06:50;;;;;;;3.22;3.00;;;;;;;8.36;100.00;98964.44;2533955;29;20051;-80
2022/07/12 01:08:07;;;;;;;5.13;2.90;;;;;;;8.34;100.00;98962.72;2523846;29;20052;-78
2022/07/12 01:09:23;;;;;;;7.32;3.10;;;;;;;8.37;100.00;98969.66;2527998;29;20053;-78
2022/07/12 01:10:39;;;;;;;4.03;3.13;;;;;;;8.39;100.00;98964.44;2532628;29;20063;-77
2022/07/12 01:11:55;;;;;;;3.65;3.35;;;;;;;8.38;100.00;98976.59;2534433;29;20052;-77
2022/07/12 01:13:11;;;;;;;3.47;3.03;;;;;;;8.37;100.00;98972.25;2533150;29;20080;-78
2022/07/12 01:14:28;;;;;;;3.75;2.97;;;;;;;8.37;100.00;98968.78;2532669;29;20503;-79
2022/07/12 01:15:45;;;;;;;4.53;3.20;;;;;;;8.38;100.00;98971.38;2533777;29;20426;-75
2022/07/12 01:17:02;;;;;;;3.35;3.05;;;;;;;8.41;100.00;98965.28;2533569;29;20075;-76
2022/07/12 01:18:18;;;;;;;3.40;3.10;;;;;;;8.39;100.00;98967.88;2533695;29;20044;-76
2022/07/12 01:19:36;;;;;;;3.60;3.30;;;;;;;8.36;100.00;98961.81;2533270;29;20055;-79
2022/07/12 01:20:52;;;;;;;3.72;3.20;;;;;;;8.33;100.00;98966.19;2534552;29;20068;-77
2022/07/12 01:22:10;;;;;;;3.20;2.90;;;;;;;8.35;100.00;98971.41;2533335;29;20515;-76
2022/07/12 01:23:26;;;;;;;3.28;2.97;;;;;;;8.37;100.00;98968.78;2533933;29;20048;-77
2022/07/12 01:24:42;;;;;;;4.88;3.00;;;;;;;8.40;100.00;98973.97;2522975;29;20060;-76
2022/07/12 01:25:57;;;;;;;3.85;3.10;;;;;;;8.47;100.00;98973.91;2526966;29;20056;-76
2022/07/12 01:27:13;;;;;;;3.53;3.22;;;;;;;8.48;100.00;98973.03;2531904;29;20456;-77
2022/07/12 01:28:29;;;;;;;5.75;3.65;;;;;;;8.65;100.00;98977.22;2532324;29;20059;-77
2022/07/12 01:29:44;;;;;;;3.67;3.20;;;;;;;8.60;100.00;98972.03;2534962;29;20368;-77
2022/07/12 01:31:00;;;;;;;7.45;3.40;;;;;;;8.59;100.00;98978.13;2534903;29;20067;-78
2022/07/12 01:32:24;;;;;;;4.13;3.45;;;;;;;8.56;100.00;98975.56;2533639;29;20064;-78
2022/07/12 01:33:40;;;;;;;3.70;3.40;;;;;;;8.51;100.00;98971.28;2534744;29;20121;-77
2022/07/12 01:35:00;;;;;;;4.93;3.05;;;;;;;8.44;100.00;98978.28;2533442;29;20136;-76
2022/07/12 01:36:16;;;;;;;4.55;2.95;;;;;;;8.39;100.00;98970.50;2535069;29;20047;-76
2022/07/12 01:37:36;;;;;;;6.03;3.17;;;;;;;8.34;100.00;98969.69;2532553;29;20056;-76
2022/07/12 01:38:52;;;;;;;5.55;2.97;;;;;;;8.28;100.00;98969.75;2533952;29;20543;-76
2022/07/12 01:40:11;;;;;;;5.60;3.25;;;;;;;8.26;100.00;98974.09;2533336;29;20135;-79
2022/07/12 01:41:27;;;;;;;4.75;3.30;;;;;;;8.26;100.00;98976.72;2533431;29;20112;-76
2022/07/12 01:42:46;;;;;;;3.88;3.58;;;;;;;8.22;100.00;98973.28;2532385;29;20506;-76
2022/07/12 01:44:02;;;;;;;4.07;3.40;;;;;;;8.21;100.00;98968.94;2533821;29;20142;-76
2022/07/12 01:45:17;;;;;;;4.97;3.38;;;;;;;8.19;100.00;98979.41;2534881;29;20055;-76
2022/07/12 01:46:33;;;;;;;3.65;3.20;;;;;;;8.37;100.00;98974.88;2522967;29;20052;-76
2022/07/12 01:47:48;;;;;;;4.03;3.38;;;;;;;8.49;100.00;98981.69;2528113;29;20045;-76
2022/07/12 01:49:04;;;;;;;3.63;3.33;;;;;;;8.56;100.00;98983.41;2534565;29;20051;-76
2022/07/12 01:50:20;;;;;;;4.47;3.67;;;;;;;8.64;100.00;98985.03;2533723;29;20126;-76
2022/07/12 01:51:36;;;;;;;5.75;3.63;;;;;;;8.74;100.00;98987.56;2532200;29;20052;-82
2022/07/12 01:52:52;;;;;;;5.05;3.55;;;;;;;8.58;100.00;98984.25;2533912;29;20426;-77
2022/07/12 01:54:08;;;;;;;3.67;3.38;;;;;;;8.60;100.00;98981.63;2533151;29;20187;-78
2022/07/12 01:55:23;;;;;;;4.07;3.67;;;;;;;8.50;100.00;98979.97;2531925;29;20111;-78
2022/07/12 01:56:39;;;;;;;6.05;3.78;;;;;;;8.40;100.00;98985.28;2531579;29;20048;-78
2022/07/12 01:57:55;;;;;;;4.30;3.72;;;;;;;8.34;100.00;98986.19;2532009;29;20044;-77
2022/07/12 01:59:10;;;;;;;4.13;3.72;;;;;;;8.31;100.00;98985.34;2535151;29;20575;-77
2022/07/12 02:00:26;;;;;;;4.22;3.83;;;;;;;8.34;100.00;98986.19;2531393;29;20060;-78
2022/07/12 02:01:43;;;;;;;4.22;3.83;;;;;;;8.29;100.00;98982.78;2532598;29;20107;-76
2022/07/12 02:02:59;;;;;;;3.80;3.50;;;;;;;8.22;100.00;98986.31;2533160;29;20059;-76
2022/07/12 02:04:18;;;;;;;5.47;3.47;;;;;;;8.15;100.00;98984.66;2532271;29;20094;-77
2022/07/12 02:05:35;;;;;;;3.50;3.20;;;;;;;8.05;100.00;98983.88;2533383;29;20049;-76
2022/07/12 02:06:50;;;;;;;5.30;3.50;;;;;;;8.01;100.00;98984.75;2533772;29;20127;-77
2022/07/12 02:08:06;;;;;;;5.22;3.40;;;;;;;8.02;100.00;98986.50;2533564;29;20052;-76
2022/07/12 02:09:22;;;;;;;5.97;3.90;;;;;;;7.99;100.00;98984.78;2533303;29;20048;-76
2022/07/12 02:10:43;;;;;;;5.10;3.72;;;;;;;7.95;100.00;98982.22;2534776;29;20075;-76
2022/07/12 02:11:59;;;;;;;4.15;3.35;;;;;;;7.95;100.00;98993.50;2532376;29;20118;-76
2022/07/12 02:13:14;;;;;;;4.22;3.67;;;;;;;7.97;100.00;98986.56;2532896;29;20140;-77
2022/07/12 02:14:30;;;;;;;5.30;3.45;;;;;;;7.95;100.00;98990.03;2534040;29;20052;-76
2022/07/12 02:15:46;;;;;;;4.55;3.53;;;;;;;7.90;100.00;98979.66;2532784;29;20467;-76
2022/07/12 02:17:01;;;;;;;4.57;3.78;;;;;;;7.84;100.00;98985.78;2534061;29;20085;-76
2022/07/12 02:18:17;;;;;;;4.25;3.40;;;;;;;7.83;100.00;98984.06;2522874;29;20564;-79
2022/07/12 02:19:33;;;;;;;4.00;3.65;;;;;;;7.91;100.00;98981.38;2526700;29;20052;-76
2022/07/12 02:20:48;;;;;;;4.28;3.88;;;;;;;7.93;100.00;98984.84;2531763;29;20530;-76
2022/07/12 02:22:04;;;;;;;6.15;3.72;;;;;;;7.89;100.00;98993.56;2533275;29;20119;-76
2022/07/12 02:23:19;;;;;;;4.80;3.67;;;;;;;7.94;100.00;98986.56;2533803;29;20052;-76
2022/07/12 02:24:35;;;;;;;4.88;4.10;;;;;;;8.05;100.00;98994.31;2533494;29;20518;-75
2022/07/12 02:25:51;;;;;;;4.40;4.00;;;;;;;8.17;100.00;98983.78;2533343;29;20139;-76
2022/07/12 02:27:07;;;;;;;4.70;4.25;;;;;;;8.23;100.00;98988.03;2532601;29;20087;-75
2022/07/12 02:28:22;;;;;;;4.72;4.10;;;;;;;8.17;100.00;98998.53;2534345;29;20190;-76
2022/07/12 02:29:38;;;;;;;7.18;4.00;;;;;;;8.04;100.00;98996.03;2533100;29;20060;-79
2022/07/12 02:30:53;;;;;;;4.68;4.00;;;;;;;8.00;100.00;98994.34;2532726;29;20067;-76
2022/07/12 02:32:09;;;;;;;4.47;4.07;;;;;;;7.96;100.00;98994.38;2534689;29;20060;-76
2022/07/12 02:33:25;;;;;;;4.55;4.15;;;;;;;7.95;100.00;98995.25;2533532;29;20052;-76
2022/07/12 02:34:40;;;;;;;4.20;3.80;;;;;;;7.91;100.00;99002.25;2533346;29;20052;-76
2022/07/12 02:35:56;;;;;;;4.25;3.85;;;;;;;7.86;100.00;99004.03;2534212;29;20126;-76
2022/07/12 02:37:12;;;;;;;5.32;3.92;;;;;;;7.90;100.00;99000.50;2531611;29;20590;-76
2022/07/12 02:38:28;;;;;;;4.22;3.83;;;;;;;7.86;100.00;98998.81;2533238;29;20076;-77
2022/07/12 02:39:44;;;;;;;3.90;3.42;;;;;;;7.83;100.00;99001.44;2534384;29;20056;-80
2022/07/12 02:40:59;;;;;;;4.97;3.53;;;;;;;7.76;100.00;98998.88;2523624;29;20053;-78
2022/07/12 02:42:15;;;;;;;3.90;3.50;;;;;;;7.81;100.00;98998.84;2526444;29;20056;-78
2022/07/12 02:43:31;;;;;;;4.00;3.63;;;;;;;7.75;100.00;98996.28;2533077;29;20555;-77
2022/07/12 02:44:46;;;;;;;4.97;3.33;;;;;;;7.78;100.00;99004.09;2531481;29;20044;-78
2022/07/12 02:46:08;;;;;;;3.63;3.33;;;;;;;7.74;100.00;99002.34;2534266;29;20494;-80
2022/07/12 02:47:23;;;;;;;7.13;3.30;;;;;;;7.63;100.00;98997.22;2531464;29;20052;-77
2022/07/12 02:48:40;;;;;;;4.13;3.55;;;;;;;7.54;100.00;98999.88;2532936;29;20048;-77
2022/07/12 02:49:55;;;;;;;4.03;3.63;;;;;;;7.51;100.00;99005.13;2531706;29;20083;-78
2022/07/12 02:51:11;;;;;;;3.72;3.38;;;;;;;7.48;100.00;98998.22;2534492;29;20075;-81
2022/07/12 02:52:26;;;;;;;3.92;3.63;;;;;;;7.45;100.00;98998.22;2533516;29;20048;-79
2022/07/12 02:53:42;;;;;;;4.63;4.00;;;;;;;7.39;100.00;98993.91;2534397;29;20052;-78
2022/07/12 02:54:58;;;;;;;4.68;4.25;;;;;;;7.42;100.00;98999.13;2533531;29;20044;-77
2022/07/12 02:56:13;;;;;;;4.30;3.90;;;;;;;7.41;100.00;99002.59;2532507;29;20044;-77
2022/07/12 02:57:29;;;;;;;4.47;4.07;;;;;;;7.37;100.00;99003.47;2532881;29;20049;-77
2022/07/12 02:58:45;;;;;;;4.40;4.00;;;;;;;7.37;100.00;99002.63;2533053;29;21029;-75
2022/07/12 03:00:00;;;;;;;4.50;3.97;;;;;;;7.37;100.00;99006.06;2523383;29;20153;-76
2022/07/12 03:01:16;;;;;;;5.82;4.20;;;;;;;7.38;100.00;99009.56;2525059;29;20491;-76
2022/07/12 03:02:31;;;;;;;4.78;4.38;;;;;;;7.40;100.00;99010.41;2531736;29;20760;-76
2022/07/12 03:03:47;;;;;;;7.38;4.35;;;;;;;7.43;100.00;99015.59;2521945;29;20179;-76
2022/07/12 03:05:03;;;;;;;5.05;4.55;;;;;;;7.46;100.00;99013.84;2524870;29;20508;-76
2022/07/12 03:06:19;;;;;;;5.45;4.60;;;;;;;7.55;100.00;99009.47;2532099;29;20052;-76
2022/07/12 03:07:34;;;;;;;5.30;4.80;;;;;;;7.58;100.00;99009.44;2532223;29;20045;-76
2022/07/12 03:08:50;;;;;;;4.80;4.40;;;;;;;7.72;100.00;99010.22;2533324;29;20476;-75
2022/07/12 03:10:06;;;;;;;5.15;4.40;;;;;;;7.68;100.00;98999.81;2531443;29;20051;-80
2022/07/12 03:11:21;;;;;;;4.85;4.07;;;;;;;7.58;100.00;99012.03;2532572;29;20105;-76
2022/07/12 03:12:38;;;;;;;4.95;3.58;;;;;;;7.55;100.00;99010.31;2531567;29;20060;-76
2022/07/12 03:13:53;;;;;;;4.63;4.22;;;;;;;7.52;100.00;99012.06;2532332;29;20067;-76
2022/07/12 03:15:09;;;;;;;4.90;4.40;;;;;;;7.51;100.00;99013.81;2530937;29;20048;-76
2022/07/12 03:16:25;;;;;;;4.63;4.22;;;;;;;7.53;100.00;99008.59;2531919;29;20495;-75
2022/07/12 03:17:40;;;;;;;4.63;4.22;;;;;;;7.55;100.00;99012.06;2533318;29;20414;-76
2022/07/12 03:18:56;;;;;;;5.72;4.70;;;;;;;7.56;100.00;99016.41;2533393;29;20048;-76
2022/07/12 03:20:14;;;;;;;5.95;4.15;;;;;;;7.53;100.00;99013.78;2533519;29;20056;-75
2022/07/12 03:21:30;;;;;;;5.65;4.28;;;;;;;7.54;100.00;99018.13;2533318;29;20044;-75
2022/07/12 03:22:48;;;;;;;4.65;4.10;;;;;;;7.59;100.00;99019.84;2532325;29;20049;-75
2022/07/12 03:24:04;;;;;;;5.35;4.55;;;;;;;7.59;100.00;99012.03;2533362;29;20052;-75
2022/07/12 03:25:20;;;;;;;5.50;4.38;;;;;;;7.61;100.00;99019.84;2532569;29;20052;-76
2022/07/12 03:26:36;;;;;;;5.25;4.63;;;;;;;7.57;100.00;99018.13;2531342;29;20078;-76
2022/07/12 03:27:52;;;;;;;5.38;4.80;;;;;;;7.56;100.00;99021.63;2532372;29;20059;-77
2022/07/12 03:29:08;;;;;;;5.00;4.50;;;;;;;7.66;100.00;99012.84;2532696;29;20052;-77
2022/07/12 03:30:23;;;;;;;6.30;5.00;;;;;;;7.73;100.00;99009.34;2532443;29;20066;-77
2022/07/12 03:31:39;;;;;;;4.70;4.30;;;;;;;7.96;100.00;99017.84;2533081;29;20052;-77
2022/07/12 03:32:54;;;;;;;5.32;4.68;;;;;;;7.98;100.00;99026.53;2533247;29;20060;-77
2022/07/12 03:34:10;;;;;;;4.95;4.25;;;;;;;8.00;100.00;99024.75;2532854;29;20057;-77
2022/07/12 03:35:26;;;;;;;5.00;4.30;;;;;;;7.99;100.00;99023.03;2531350;29;20052;-80
2022/07/12 03:36:41;;;;;;;4.68;4.18;;;;;;;7.99;100.00;99017.81;2532390;29;20497;-77
2022/07/12 03:37:57;;;;;;;4.55;4.15;;;;;;;8.02;100.00;99026.50;2531538;29;20108;-77
2022/07/12 03:39:12;;;;;;;4.78;4.35;;;;;;;8.21;100.00;99034.16;2533183;29;20056;-78
2022/07/12 03:40:31;;;;;;;6.70;4.43;;;;;;;8.33;100.00;99030.59;2533658;29;20044;-77
2022/07/12 03:41:47;;;;;;;4.82;4.43;;;;;;;8.40;100.00;99031.38;2532331;29;20051;-77
2022/07/12 03:43:02;;;;;;;5.85;4.30;;;;;;;8.41;100.00;99033.97;2534198;29;20415;-79
2022/07/12 03:44:18;;;;;;;4.88;4.47;;;;;;;8.39;100.00;99032.28;2533097;29;20499;-77
2022/07/12 03:45:34;;;;;;;4.50;3.90;;;;;;;8.40;100.00;99031.38;2531704;29;20040;-77
2022/07/12 03:46:50;;;;;;;4.93;4.43;;;;;;;8.39;100.00;99030.50;2533268;29;20101;-78
2022/07/12 03:48:05;;;;;;;4.50;4.10;;;;;;;8.47;100.00;99038.25;2532293;29;20049;-78
2022/07/12 03:49:21;;;;;;;4.45;4.05;;;;;;;8.38;100.00;99027.91;2533978;29;20531;-78
2022/07/12 03:50:37;;;;;;;5.60;4.22;;;;;;;8.22;100.00;99029.81;2534485;29;20051;-77
2022/07/12 03:51:52;;;;;;;5.15;4.65;;;;;;;8.15;100.00;99032.44;2534114;29;20083;-77
2022/07/12 03:53:08;;;;;;;5.28;4.78;;;;;;;8.12;100.00;99034.25;2533331;29;20422;-77
2022/07/12 03:54:23;;;;;;;5.55;4.78;;;;;;;8.09;100.00;99034.25;2533566;29;20055;-77
2022/07/12 03:55:39;;;;;;;4.95;4.30;;;;;;;8.10;100.00;99034.25;2533257;29;20048;-78
2022/07/12 03:57:13;;;;;;;5.18;4.65;;;;;;;8.30;100.00;99023.63;2535619;29;20106;-77
2022/07/12 03:58:28;;;;;;;4.53;4.13;;;;;;;8.35;100.00;99026.22;2532982;29;20097;-81
2022/07/12 03:59:45;;;;;;;6.00;4.25;;;;;;;8.35;100.00;99031.44;2533097;29;20072;-77
2022/07/12 04:01:01;;;;;;;5.88;4.50;;;;;;;8.31;100.00;99037.53;2536182;29;20111;-77
2022/07/12 04:02:16;;;;;;;5.22;3.95;;;;;;;8.26;100.00;99026.28;2535459;29;20055;-79
2022/07/12 04:03:32;;;;;;;4.95;4.45;;;;;;;8.28;100.00;99035.84;2534566;29;20048;-78
2022/07/12 04:04:47;;;;;;;4.43;4.03;;;;;;;8.39;100.00;99029.66;2533078;29;20460;-77
2022/07/12 04:06:03;;;;;;;4.90;4.50;;;;;;;8.43;100.00;99031.34;2534856;29;20499;-77
2022/07/12 04:07:20;;;;;;;5.65;3.90;;;;;;;8.50;100.00;99030.44;2533044;29;20131;-80
2022/07/12 04:08:35;;;;;;;4.75;4.30;;;;;;;8.53;100.00;99027.81;2535667;29;20052;-77
2022/07/12 04:09:51;;;;;;;5.25;4.40;;;;;;;8.47;100.00;99030.44;2534038;29;20052;-78
2022/07/12 04:11:06;;;;;;;4.95;4.50;;;;;;;8.52;100.00;99031.31;2533464;29;20052;-78
2022/07/12 04:12:22;;;;;;;5.15;4.45;;;;;;;8.46;100.00;99037.41;2534148;29;20495;-79
2022/07/12 04:13:37;;;;;;;6.55;4.80;;;;;;;8.42;100.00;99034.84;2533315;29;20057;-78
2022/07/12 04:14:53;;;;;;;6.65;5.05;;;;;;;8.43;100.00;99032.19;2533418;29;20052;-79
2022/07/12 04:16:09;;;;;;;5.93;5.32;;;;;;;8.45;100.00;99035.69;2533209;29;20217;-79
2022/07/12 04:17:24;;;;;;;5.53;4.97;;;;;;;8.58;100.00;99032.97;2533356;29;20067;-79
2022/07/12 04:18:40;;;;;;;5.53;4.97;;;;;;;8.70;100.00;99034.59;2535450;29;20508;-80
2022/07/12 04:19:56;;;;;;;5.57;4.65;;;;;;;8.78;100.00;99032.75;2535728;29;20050;-78
2022/07/12 04:21:12;;;;;;;5.20;4.70;;;;;;;8.86;100.00;99030.94;2534079;29;20067;-80
2022/07/12 04:22:28;;;;;;;6.88;4.97;;;;;;;8.97;100.00;99037.78;2534142;29;20063;-78
2022/07/12 04:23:44;;;;;;;5.28;4.78;;;;;;;9.12;100.00;99031.47;2533767;29;20056;-81
2022/07/12 04:24:59;;;;;;;5.25;4.72;;;;;;;9.16;100.00;99038.41;2533928;29;20048;-79
2022/07/12 04:26:15;;;;;;;7.10;4.78;;;;;;;9.25;100.00;99033.06;2535871;29;20423;-78
2022/07/12 04:27:31;;;;;;;4.68;4.18;;;;;;;9.42;100.00;99038.06;2533001;29;20055;-78
2022/07/12 04:28:46;;;;;;;4.28;3.85;;;;;;;9.50;100.00;99037.06;2533519;29;20508;-78
2022/07/12 04:30:02;;;;;;;6.97;4.38;;;;;;;9.66;100.00;99035.13;2535682;29;20415;-79
2022/07/12 04:31:18;;;;;;;4.75;4.35;;;;;;;9.73;100.00;99037.63;2533670;29;20135;-78
2022/07/12 04:32:33;;;;;;;4.57;4.05;;;;;;;9.75;100.00;99029.75;2524927;29;20044;-78
2022/07/12 04:33:49;;;;;;;4.38;3.55;;;;;;;9.85;100.00;99033.09;2529576;29;20486;-78
2022/07/12 04:35:06;;;;;;;4.57;3.72;;;;;;;9.92;100.00;99033.88;2534103;29;20127;-78
2022/07/12 04:36:21;;;;;;;4.50;4.10;;;;;;;9.99;100.00;99040.75;2533351;29;20480;-82
2022/07/12 04:37:37;;;;;;;5.35;3.65;;;;;;;10.07;100.00;99040.63;2534497;29;20111;-78
2022/07/12 04:38:52;;;;;;;4.20;3.80;;;;;;;10.17;100.00;99036.94;2533470;29;20052;-78
2022/07/12 04:40:09;;;;;;;4.22;3.83;;;;;;;10.28;100.00;99032.38;2534692;29;20044;-79
2022/07/12 04:41:24;;;;;;;5.35;3.80;;;;;;;10.28;100.00;99029.78;2534854;29;20052;-78
2022/07/12 04:42:40;;;;;;;3.92;3.60;;;;;;;10.19;100.00;99029.91;2534068;29;20431;-78
2022/07/12 04:43:55;;;;;;;6.07;3.50;;;;;;;10.18;100.00;99028.19;2533631;29;20646;-79
2022/07/12 04:45:11;;;;;;;4.20;3.80;;;;;;;10.28;100.00;99037.63;2533917;29;20546;-78
2022/07/12 04:46:27;;;;;;;3.78;3.47;;;;;;;10.30;100.00;99035.84;2533976;29;20079;-80
2022/07/12 04:47:42;;;;;;;5.00;3.90;;;;;;;10.40;100.00;99033.91;2534845;29;20056;-78
2022/07/12 04:48:58;;;;;;;3.50;3.20;;;;;;;10.42;100.00;99034.81;2523976;29;20052;-78
2022/07/12 04:50:13;;;;;;;10.43;4.25;;;;;;;10.39;100.00;99037.44;2527982;29;20099;-78
2022/07/12 04:51:29;;;;;;;4.63;4.22;;;;;;;10.38;100.00;99033.09;2535918;29;20067;-77
2022/07/12 04:52:45;;;;;;;4.85;3.90;;;;;;;10.37;100.00;99031.38;2533492;29;20100;-77
2022/07/12 04:54:00;;;;;;;4.18;3.78;;;;;;;10.35;100.00;99027.91;2533686;29;20060;-84
2022/07/12 04:55:16;;;;;;;4.50;4.10;;;;;;;10.36;100.00;99032.25;2534330;29;20059;-77
2022/07/12 04:56:31;;;;;;;4.25;3.88;;;;;;;10.38;100.00;99034.84;2533471;29;20194;-78
2022/07/12 04:57:47;;;;;;;4.20;3.80;;;;;;;10.44;100.00;99032.16;2533053;29;20052;-77
2022/07/12 04:59:02;;;;;;;3.95;3.53;;;;;;;10.57;100.00;99038.03;2532495;29;20056;-78
2022/07/12 05:00:18;;;;;;;3.95;3.55;;;;;;;10.56;100.00;99031.94;2533578;29;20057;-79
2022/07/12 05:01:33;;;;;;;4.05;3.65;;;;;;;10.63;100.00;99034.44;2532796;29;20049;-79
2022/07/12 05:02:49;;;;;;;3.88;3.47;;;;;;;10.71;100.00;99036.03;2534575;29;20146;-78
2022/07/12 05:04:05;;;;;;;4.05;3.58;;;;;;;10.80;100.00;99037.59;2532501;29;20472;-77
2022/07/12 05:05:20;;;;;;;4.22;3.58;;;;;;;10.85;100.00;99038.38;2532810;29;20056;-78
2022/07/12 05:06:36;;;;;;;4.20;3.80;;;;;;;10.83;100.00;99034.91;2535375;29;20079;-77
2022/07/12 05:07:52;;;;;;;5.18;3.97;;;;;;;10.88;100.00;99037.44;2533180;29;20566;-77
2022/07/12 05:09:07;;;;;;;5.63;4.13;;;;;;;10.89;100.00;99031.31;2533710;29;20052;-80
2022/07/12 05:10:23;;;;;;;3.88;3.47;;;;;;;10.92;100.00;99033.03;2535404;29;20053;-77
2022/07/12 05:11:38;;;;;;;5.22;3.60;;;;;;;10.97;100.00;99044.25;2533061;29;20948;-78
2022/07/12 05:12:54;;;;;;;3.95;3.60;;;;;;;11.05;100.00;99038.88;2532693;29;20460;-82
2022/07/12 05:14:09;;;;;;;3.83;3.38;;;;;;;11.16;100.00;99036.91;2533693;29;20056;-79
2022/07/12 05:15:25;;;;;;;3.85;3.33;;;;;;;11.21;100.00;99039.44;2534790;29;20059;-78
2022/07/12 05:16:41;;;;;;;3.88;3.10;;;;;;;11.22;100.00;99042.00;2533505;29;20064;-78
2022/07/12 05:17:56;;;;;;;6.10;3.65;;;;;;;11.27;100.00;99042.78;2535946;29;20056;-78
2022/07/12 05:19:12;;;;;;;4.13;3.20;;;;;;;11.42;100.00;99035.47;2532853;29;20052;-77
2022/07/12 05:20:27;;;;;;;5.28;3.47;;;;;;;11.43;100.00;99040.66;2533774;29;20927;-78
2022/07/12 05:21:43;;;;;;;5.78;3.15;;;;;;;11.56;100.00;99035.16;2534618;29;20329;-80
2022/07/12 05:22:59;;;;;;;4.35;3.75;;;;;;;11.54;100.00;99036.97;2533606;29;20052;-78
2022/07/12 05:24:14;;;;;;;3.47;3.17;;;;;;;11.72;100.00;99036.53;2534871;29;20079;-79
2022/07/12 05:25:30;;;;;;;4.57;3.63;;;;;;;11.68;100.00;99037.50;2532099;29;20199;-82
2022/07/12 05:26:45;;;;;;;3.53;3.22;;;;;;;11.71;100.00;99037.44;2533739;29;20206;-78
2022/07/12 05:28:01;;;;;;;6.35;3.90;;;;;;;11.72;100.00;99040.94;2533931;29;20396;-78
2022/07/12 05:29:16;;;;;;;3.53;3.22;;;;;;;11.72;100.00;99041.78;2524166;29;20053;-79
2022/07/12 05:30:33;;;;;;;4.53;3.30;;;;;;;11.86;100.00;99038.84;2525862;29;20051;-78
2022/07/12 05:31:48;;;;;;;3.55;3.22;;;;;;;11.92;100.00;99042.22;2533367;29;20068;-78
2022/07/12 05:33:04;;;;;;;3.28;2.97;;;;;;;11.97;100.00;99035.97;2532252;29;20244;-80
2022/07/12 05:34:19;;;;;;;3.63;3.33;;;;;;;12.10;100.00;99033.06;2532606;29;20527;-80
2022/07/12 05:35:35;;;;;;;3.72;3.30;;;;;;;12.10;100.00;99031.31;2532317;29;20415;-76
2022/07/12 05:36:50;;;;;;;5.97;3.20;;;;;;;12.18;100.00;99036.38;2533776;29;20052;-77
2022/07/12 05:38:06;;;;;;;6.20;3.10;;;;;;;12.22;100.00;99040.66;2532060;29;20135;-77
2022/07/12 05:39:22;;;;;;;4.03;3.22;;;;;;;12.26;100.00;99041.44;2532249;29;20473;-76
2022/07/12 05:40:37;;;;;;;3.45;3.15;;;;;;;12.25;100.00;99045.81;2531983;29;20393;-76
2022/07/12 05:41:53;;;;;;;4.68;3.13;;;;;;;12.27;100.00;99038.75;2534141;29;20048;-76
2022/07/12 05:43:08;;;;;;;3.83;3.03;;;;;;;12.34;100.00;99036.00;2535068;29;20128;-77
2022/07/12 05:44:24;;;;;;;4.13;3.08;;;;;;;12.44;100.00;99037.47;2532136;29;20045;-76
2022/07/12 05:45:42;;;;;;;3.47;3.03;;;;;;;12.47;100.00;99040.03;2533707;29;20261;-76
2022/07/12 05:46:57;;;;;;;3.88;3.00;;;;;;;12.49;100.00;99042.59;2533325;29;20426;-77
2022/07/12 05:48:13;;;;;;;3.85;3.22;;;;;;;12.55;100.00;99045.91;2532626;29;20048;-77
2022/07/12 05:49:28;;;;;;;3.42;3.13;;;;;;;12.69;100.00;99052.56;2533193;29;20589;-76
2022/07/12 05:50:44;;;;;;;3.30;3.00;;;;;;;12.71;100.00;99051.63;2532481;29;20051;-76
2022/07/12 05:53:34;;;;;;;3.28;2.97;;;;;;;12.92;100.00;99046.72;2534414;29;20048;-78
2022/07/12 05:54:49;;;;;;;5.40;3.20;;;;;;;13.02;100.00;99046.44;2533071;29;20051;-77
2022/07/12 05:56:05;;;;;;;3.20;2.90;;;;;;;13.04;100.00;99050.75;2534880;29;20060;-77
2022/07/12 05:57:20;;;;;;;3.50;2.80;;;;;;;13.14;100.00;99048.72;2533350;29;20062;-79
2022/07/12 05:58:36;;;;;;;3.05;2.75;;;;;;;13.26;100.00;99045.72;2532249;29;20052;-77